Time;durP1;ratioP1;P1;durP2;ratioP2;P2;SDS_P1;SDS_P2;PMS_P1;PMS_P2;Temp;Humidity;BMP_temperature;BMP_pressure;BME280_temperature;BME280_humidity;BME280_pressure;Samples;Min_cycle;Max_cycle;Signal;HPM_P1;HPM_P2
2022/12/01 00:01:48;;;;;;;6.93;6.33;;;;;;;7.78;100.00;99938.72;5073187;28;20209;-54
2022/12/01 00:04:15;;;;;;;7.60;6.90;;;;;;;7.74;100.00;99935.22;5072870;28;20191;-54
2022/12/01 00:06:43;;;;;;;7.37;6.10;;;;;;;7.80;100.00;99929.44;5073100;28;20193;-54
2022/12/01 00:11:54;;;;;;;8.90;7.40;;;;;;;7.89;100.00;99933.16;5072946;28;20218;-55
2022/12/01 00:14:21;;;;;;;8.50;6.77;;;;;;;7.81;100.00;99909.00;5073378;28;20190;-54
2022/12/01 00:16:48;;;;;;;8.00;7.20;;;;;;;7.79;100.00;99914.91;5072558;28;20193;-55
2022/12/01 00:19:16;;;;;;;7.87;7.17;;;;;;;7.79;100.00;99920.00;5073122;28;20195;-55
2022/12/01 00:21:46;;;;;;;8.17;7.37;;;;;;;7.79;100.00;99923.44;5072895;28;20195;-55
2022/12/01 00:24:12;;;;;;;8.77;7.30;;;;;;;7.81;100.00;99920.91;5072704;28;20213;-55
2022/12/01 00:26:39;;;;;;;8.23;7.43;;;;;;;7.83;100.00;99922.72;5072762;28;20212;-55
2022/12/01 00:29:06;;;;;;;8.60;7.70;;;;;;;7.75;100.00;99924.13;5072448;28;20195;-54
2022/12/01 00:31:33;;;;;;;8.10;7.30;;;;;;;7.76;100.00;99908.00;5072608;28;20597;-55
2022/12/01 00:34:00;;;;;;;7.93;7.23;;;;;;;7.85;100.00;99915.97;5072618;28;20192;-55
2022/12/01 00:36:27;;;;;;;6.90;6.20;;;;;;;7.81;100.00;99919.25;5072548;28;20191;-55
2022/12/01 00:38:56;;;;;;;7.53;6.83;;;;;;;7.79;100.00;99918.31;5072451;28;20221;-55
2022/12/01 00:41:25;;;;;;;7.97;7.17;;;;;;;7.78;100.00;99918.25;5072534;28;20202;-55
2022/12/01 00:43:52;;;;;;;8.60;7.73;;;;;;;7.84;100.00;99918.47;5072002;28;20574;-55
2022/12/01 00:46:19;;;;;;;8.10;7.10;;;;;;;7.90;100.00;99919.56;5072364;28;20195;-55
2022/12/01 00:48:45;;;;;;;8.07;7.23;;;;;;;7.80;100.00;99911.53;5072538;28;20248;-55
2022/12/01 00:51:12;;;;;;;7.27;6.57;;;;;;;7.81;100.00;99915.81;5072306;28;20234;-55
2022/12/01 00:53:39;;;;;;;7.87;7.07;;;;;;;7.85;100.00;99904.88;5072305;28;20294;-55
2022/12/01 00:56:08;;;;;;;6.73;6.13;;;;;;;7.79;100.00;99907.22;5072071;28;20200;-55
2022/12/01 00:58:34;;;;;;;7.13;6.43;;;;;;;7.78;100.00;99905.47;5072365;28;20188;-55
2022/12/01 01:01:02;;;;;;;7.87;7.07;;;;;;;7.84;100.00;99905.69;5072287;28;20247;-55
2022/12/01 01:03:30;;;;;;;6.83;6.20;;;;;;;7.91;100.00;99903.38;5065962;28;20661;-55
2022/12/01 01:06:03;;;;;;;6.57;5.97;;;;;;;7.79;100.00;99897.88;5052228;28;20650;-55
2022/12/01 01:08:29;;;;;;;6.53;5.60;;;;;;;7.72;100.00;99872.88;5050744;28;20189;-55
2022/12/01 01:10:59;;;;;;;5.93;5.43;;;;;;;7.92;100.00;99894.00;5052118;28;20223;-55
2022/12/01 01:13:28;;;;;;;5.73;5.13;;;;;;;7.95;100.00;99891.56;5051905;28;20683;-55
2022/12/01 01:15:59;;;;;;;5.33;4.83;;;;;;;7.88;100.00;99887.94;5052129;28;20199;-55
2022/12/01 01:18:26;;;;;;;5.70;4.73;;;;;;;7.85;100.00;99886.97;5052180;28;20188;-55
2022/12/01 01:20:56;;;;;;;4.93;4.40;;;;;;;7.89;100.00;99881.13;5052034;28;20199;-55
2022/12/01 01:23:22;;;;;;;4.07;3.77;;;;;;;7.80;100.00;99880.84;5051822;28;20191;-55
2022/12/01 01:25:49;;;;;;;6.60;4.37;;;;;;;7.77;100.00;99875.63;5052004;28;20661;-55
2022/12/01 01:28:16;;;;;;;4.03;3.60;;;;;;;7.78;100.00;99872.22;5052921;28;20194;-55
2022/12/01 01:30:49;;;;;;;4.13;3.83;;;;;;;7.70;100.00;99870.28;5056070;28;20610;-55
2022/12/01 01:33:16;;;;;;;4.80;4.30;;;;;;;7.74;100.00;99863.59;5056010;28;20206;-55
2022/12/01 01:35:42;;;;;;;4.37;3.97;;;;;;;7.79;100.00;99862.06;5055033;28;20251;-55
2022/12/01 01:38:10;;;;;;;4.80;4.40;;;;;;;7.75;100.00;99867.03;5054857;28;20191;-55
2022/12/01 01:40:43;;;;;;;5.07;4.57;;;;;;;7.70;100.00;99866.84;5056278;28;20194;-55
2022/12/01 01:43:15;;;;;;;5.15;4.75;;;;;;;7.78;100.00;99869.66;5045737;28;20452;-55
2022/12/01 01:45:42;;;;;;;4.97;4.50;;;;;;;7.82;100.00;99859.59;5041510;28;20570;-55
2022/12/01 01:48:13;;;;;;;6.23;5.50;;;;;;;7.82;100.00;99853.63;5055937;28;20191;-55
2022/12/01 01:50:40;;;;;;;6.13;5.53;;;;;;;7.85;100.00;99859.72;5055308;28;20187;-55
2022/12/01 01:53:10;;;;;;;4.83;4.43;;;;;;;7.82;100.00;99861.28;5055907;28;20188;-55
2022/12/01 01:55:38;;;;;;;4.87;4.37;;;;;;;7.84;100.00;99855.41;5052743;28;20216;-55
2022/12/01 01:58:09;;;;;;;5.30;4.63;;;;;;;7.73;100.00;99865.28;5035534;28;20195;-55
2022/12/01 02:00:38;;;;;;;4.70;4.20;;;;;;;7.75;100.00;99859.34;5035291;28;20200;-55
2022/12/01 02:03:05;;;;;;;7.17;6.03;;;;;;;7.76;100.00;99858.53;5037149;28;20652;-55
2022/12/01 02:05:35;;;;;;;5.57;5.07;;;;;;;7.82;100.00;99864.72;5035308;28;20188;-55
2022/12/01 02:08:03;;;;;;;4.77;4.37;;;;;;;7.88;100.00;99862.38;5035296;28;20197;-55
2022/12/01 02:10:41;;;;;;;4.90;4.47;;;;;;;7.87;100.00;99860.63;5035452;28;20197;-55
2022/12/01 02:13:20;;;;;;;5.80;5.30;;;;;;;7.78;100.00;99838.97;5035253;28;20188;-55
2022/12/01 02:16:00;;;;;;;4.97;4.50;;;;;;;7.76;100.00;99861.94;5035088;28;20192;-55
2022/12/01 02:18:35;;;;;;;4.70;4.37;;;;;;;7.70;100.00;99854.94;5035454;28;20196;-55
2022/12/01 02:21:23;;;;;;;4.90;4.50;;;;;;;7.63;100.00;99857.25;5035684;28;20536;-55
2022/12/01 02:24:23;;;;;;;4.53;4.13;;;;;;;7.54;100.00;99852.69;5035160;28;20200;-54
2022/12/01 02:26:56;;;;;;;4.20;3.90;;;;;;;7.40;100.00;99830.91;5004483;28;20681;-54
2022/12/01 02:30:10;;;;;;;4.10;3.70;;;;;;;7.59;100.00;99843.50;5035198;28;20540;-55
2022/12/01 02:33:04;;;;;;;4.20;3.80;;;;;;;7.64;100.00;99846.19;5044220;28;20608;-55
2022/12/01 02:35:37;;;;;;;4.33;3.93;;;;;;;7.54;100.00;99842.47;5053128;28;20192;-55
2022/12/01 02:38:14;;;;;;;3.90;3.60;;;;;;;7.60;100.00;99841.81;5054710;28;20195;-56
2022/12/01 02:40:46;;;;;;;4.50;4.10;;;;;;;7.49;100.00;99841.44;5054330;28;20187;-54
2022/12/01 02:43:23;;;;;;;4.07;3.67;;;;;;;7.53;100.00;99839.84;5054943;28;20207;-54
2022/12/01 02:45:55;;;;;;;3.73;3.43;;;;;;;7.51;100.00;99829.59;5054747;28;20197;-54
2022/12/01 02:48:27;;;;;;;4.53;3.60;;;;;;;7.50;100.00;99832.06;5054692;28;20191;-54
2022/12/01 02:50:58;;;;;;;3.63;3.33;;;;;;;7.44;100.00;99830.22;5054768;28;20223;-54
2022/12/01 02:53:25;;;;;;;3.80;3.50;;;;;;;7.47;100.00;99835.41;5054777;28;20200;-54
2022/12/01 02:55:54;;;;;;;3.80;3.50;;;;;;;7.56;100.00;99832.28;5060115;28;20499;-54
2022/12/01 02:58:21;;;;;;;3.40;3.20;;;;;;;7.57;100.00;99834.03;5074627;28;20604;-54
2022/12/01 03:01:09;;;;;;;4.50;3.20;;;;;;;7.66;100.00;99830.06;5074361;28;20197;-54
2022/12/01 03:03:56;;;;;;;3.43;3.23;;;;;;;7.72;100.00;99821.72;5075053;28;20195;-54
2022/12/01 03:06:35;;;;;;;4.63;3.30;;;;;;;7.78;100.00;99823.63;5074336;28;20534;-54
2022/12/01 03:09:13;;;;;;;2.97;2.77;;;;;;;7.82;100.00;99828.03;5074298;28;20356;-54
2022/12/01 03:11:47;;;;;;;3.13;2.43;;;;;;;7.84;100.00;99829.81;5074135;28;20218;-54
2022/12/01 03:14:22;;;;;;;3.27;3.07;;;;;;;7.85;100.00;99821.34;5074846;28;20192;-54
2022/12/01 03:16:52;;;;;;;2.70;2.50;;;;;;;7.76;100.00;99822.72;5074129;28;20201;-55
2022/12/01 03:19:29;;;;;;;3.20;2.90;;;;;;;7.86;100.00;99833.28;5073979;28;20562;-55
2022/12/01 03:22:02;;;;;;;2.77;2.53;;;;;;;7.85;100.00;99825.56;5074110;28;20193;-55
2022/12/01 03:24:31;;;;;;;3.87;2.30;;;;;;;7.84;100.00;99829.81;5073550;28;20197;-55
2022/12/01 03:27:02;;;;;;;4.80;2.20;;;;;;;7.82;100.00;99825.47;5073671;28;20282;-54
2022/12/01 03:29:35;;;;;;;2.00;1.90;;;;;;;7.75;100.00;99828.66;5074156;28;20624;-55
2022/12/01 03:32:08;;;;;;;2.13;2.03;;;;;;;7.75;100.00;99829.50;5073439;28;20218;-55
2022/12/01 03:34:41;;;;;;;2.07;1.97;;;;;;;7.77;100.00;99820.22;5073659;28;20186;-55
2022/12/01 03:37:14;;;;;;;2.13;1.93;;;;;;;7.83;100.00;99827.22;5073995;28;20192;-55
2022/12/01 03:39:42;;;;;;;1.50;1.40;;;;;;;7.83;100.00;99829.78;5073699;28;20250;-55
2022/12/01 03:42:15;;;;;;;2.40;2.20;;;;;;;7.84;100.00;99834.06;5073778;28;20202;-55
2022/12/01 03:44:45;;;;;;;2.10;2.00;;;;;;;7.81;100.00;99834.84;5073686;28;20240;-55
2022/12/01 03:47:16;;;;;;;2.00;1.90;;;;;;;7.72;100.00;99809.81;5073406;28;20565;-55
2022/12/01 03:49:47;;;;;;;2.53;1.87;;;;;;;7.85;100.00;99830.69;5073266;28;20316;-55
2022/12/01 03:52:22;;;;;;;2.63;2.43;;;;;;;7.86;100.00;99824.72;5072732;28;20231;-55
2022/12/01 03:55:00;;;;;;;2.10;2.00;;;;;;;7.86;100.00;99833.28;5072966;28;20437;-55
2022/12/01 03:57:31;;;;;;;1.90;1.80;;;;;;;7.88;100.00;99829.13;5073216;28;20671;-55
2022/12/01 03:59:58;;;;;;;2.10;2.00;;;;;;;7.97;100.00;99823.38;5073211;28;20252;-55
2022/12/01 04:02:27;;;;;;;2.00;1.87;;;;;;;7.96;100.00;99829.34;5073110;28;20698;-55
2022/12/01 04:04:55;;;;;;;1.90;1.80;;;;;;;7.90;100.00;99824.91;5073109;28;20238;-55
2022/12/01 04:07:23;;;;;;;2.00;1.90;;;;;;;7.82;100.00;99825.47;5071071;28;20195;-55
2022/12/01 04:09:50;;;;;;;2.00;1.90;;;;;;;7.88;100.00;99825.69;5065791;28;20735;-55
2022/12/01 04:12:32;;;;;;;2.73;2.03;;;;;;;7.82;100.00;99828.03;5062758;28;20225;-55
2022/12/01 04:15:01;;;;;;;3.13;2.40;;;;;;;7.71;100.00;99822.56;5058049;28;20763;-55
2022/12/01 04:17:29;;;;;;;2.73;2.53;;;;;;;7.73;100.00;99828.59;5052914;28;20192;-55
2022/12/01 04:19:57;;;;;;;4.43;3.70;;;;;;;7.72;100.00;99825.16;5052972;28;20195;-55
2022/12/01 04:22:24;;;;;;;3.40;3.10;;;;;;;7.69;100.00;99822.50;5052842;28;20192;-55
2022/12/01 04:24:51;;;;;;;6.47;3.57;;;;;;;7.69;100.00;99834.44;5052428;28;20621;-55
2022/12/01 04:27:18;;;;;;;3.67;3.30;;;;;;;7.76;100.00;99828.69;5053367;28;20199;-55
2022/12/01 04:29:45;;;;;;;3.40;3.10;;;;;;;7.66;100.00;99834.34;5053595;28;20202;-55
2022/12/01 04:32:12;;;;;;;3.50;3.20;;;;;;;7.74;100.00;99827.78;5052892;28;20221;-54
2022/12/01 04:34:39;;;;;;;2.40;2.20;;;;;;;7.73;100.00;99833.72;5052763;28;20272;-54
2022/12/01 04:37:08;;;;;;;3.60;3.10;;;;;;;7.82;100.00;99835.72;5051654;28;20659;-54
2022/12/01 04:39:36;;;;;;;2.50;2.30;;;;;;;7.81;100.00;99833.94;5054643;28;20501;-54
2022/12/01 04:42:04;;;;;;;2.20;2.10;;;;;;;7.78;100.00;99826.19;5053074;28;20297;-54
2022/12/01 04:44:31;;;;;;;5.70;3.80;;;;;;;7.84;100.00;99831.50;5052918;28;20205;-54
2022/12/01 04:46:58;;;;;;;3.43;2.63;;;;;;;7.81;100.00;99841.63;5059124;28;20203;-58
2022/12/01 04:49:25;;;;;;;2.80;2.50;;;;;;;7.85;100.00;99833.25;5052256;28;20209;-54
2022/12/01 04:51:52;;;;;;;3.13;2.33;;;;;;;7.86;100.00;99835.84;5051385;28;20226;-55
2022/12/01 04:54:20;;;;;;;2.33;2.13;;;;;;;7.91;100.00;99838.56;5052320;28;20203;-54
2022/12/01 04:56:47;;;;;;;2.80;2.40;;;;;;;7.94;100.00;99838.66;5052316;28;20192;-55
2022/12/01 04:59:14;;;;;;;2.47;2.27;;;;;;;7.93;100.00;99839.47;5052687;28;20222;-55
2022/12/01 05:01:41;;;;;;;2.93;2.67;;;;;;;7.98;100.00;99843.94;5054276;28;20370;-54
2022/12/01 05:04:11;;;;;;;3.07;2.63;;;;;;;7.97;100.00;99834.50;5065898;28;20196;-53
2022/12/01 05:06:37;;;;;;;2.43;2.27;;;;;;;7.88;100.00;99835.91;5052092;28;20195;-54
2022/12/01 05:09:04;;;;;;;3.53;3.23;;;;;;;7.88;100.00;99841.03;5060721;28;20192;-54
2022/12/01 05:11:33;;;;;;;3.07;2.80;;;;;;;7.79;100.00;99831.38;5044476;28;20212;-54
2022/12/01 05:14:00;;;;;;;3.10;2.80;;;;;;;7.72;100.00;99839.63;5060807;28;20199;-54
2022/12/01 05:16:30;;;;;;;4.07;2.93;;;;;;;7.71;100.00;99843.03;5051946;28;20245;-54
2022/12/01 05:21:40;;;;;;;3.00;2.80;;;;;;;7.75;100.00;99841.47;5072566;28;20269;-54
2022/12/01 05:24:08;;;;;;;4.67;4.07;;;;;;;7.69;100.00;99822.50;5062201;28;20199;-55
2022/12/01 05:26:36;;;;;;;6.43;5.30;;;;;;;7.76;100.00;99841.50;5051825;28;20188;-54
2022/12/01 05:29:03;;;;;;;5.88;5.13;;;;;;;7.72;100.00;99850.75;5051870;28;20413;-54
2022/12/01 05:31:30;;;;;;;14.30;7.37;;;;;;;7.75;100.00;99844.00;5052722;28;20192;-55
2022/12/01 05:33:57;;;;;;;5.40;4.07;;;;;;;7.81;100.00;99842.50;5054931;28;20300;-55
2022/12/01 05:36:24;;;;;;;4.17;3.77;;;;;;;7.91;100.00;99841.13;5052326;28;20195;-55
2022/12/01 05:38:51;;;;;;;3.43;2.60;;;;;;;7.89;100.00;99843.63;5051751;28;20203;-55
2022/12/01 05:41:18;;;;;;;4.37;2.67;;;;;;;7.90;100.00;99837.69;5051312;28;20678;-55
2022/12/01 05:43:46;;;;;;;1.95;1.85;;;;;;;7.87;100.00;99836.72;5050924;28;20983;-55
2022/12/01 05:46:13;;;;;;;2.50;2.30;;;;;;;7.87;100.00;99842.72;5039149;28;20266;-55
2022/12/01 05:48:40;;;;;;;2.57;2.30;;;;;;;7.88;100.00;99844.47;5033739;28;20205;-55
2022/12/01 05:51:11;;;;;;;3.47;2.37;;;;;;;7.92;100.00;99837.72;5051527;28;20269;-55
2022/12/01 05:53:38;;;;;;;4.53;2.67;;;;;;;7.97;100.00;99838.75;5051683;28;20244;-55
2022/12/01 05:56:05;;;;;;;3.73;3.20;;;;;;;7.97;100.00;99843.84;5051540;28;20190;-55
2022/12/01 05:58:32;;;;;;;4.13;2.50;;;;;;;7.98;100.00;99845.59;5051516;28;20202;-55
2022/12/01 06:01:01;;;;;;;2.50;2.30;;;;;;;7.87;100.00;99846.94;5038012;28;20192;-55
2022/12/01 06:03:28;;;;;;;2.47;2.00;;;;;;;7.89;100.00;99847.84;5039232;28;20208;-55
2022/12/01 06:05:54;;;;;;;1.70;1.50;;;;;;;7.82;100.00;99851.94;5031625;28;20196;-55
2022/12/01 06:08:21;;;;;;;1.87;1.73;;;;;;;7.78;100.00;99849.19;5041204;28;20197;-55
2022/12/01 06:10:48;;;;;;;2.23;1.43;;;;;;;7.81;100.00;99859.53;5032194;28;20200;-55
2022/12/01 06:13:15;;;;;;;3.03;1.83;;;;;;;7.69;100.00;99860.88;5031400;28;20227;-55
2022/12/01 06:15:42;;;;;;;1.70;1.60;;;;;;;7.66;100.00;99865.88;5034475;28;20203;-55
2022/12/01 06:18:10;;;;;;;2.80;2.60;;;;;;;7.69;100.00;99860.03;5035105;28;20575;-55
2022/12/01 06:20:37;;;;;;;1.93;1.83;;;;;;;7.67;100.00;99865.06;5035128;28;20192;-55
2022/12/01 06:23:04;;;;;;;2.33;2.13;;;;;;;7.62;100.00;99865.72;5034846;28;20232;-55
2022/12/01 06:25:31;;;;;;;2.30;2.10;;;;;;;7.67;100.00;99867.63;5052103;28;20446;-55
2022/12/01 06:27:57;;;;;;;1.83;1.73;;;;;;;7.65;100.00;99868.41;5074555;28;20254;-55
2022/12/01 06:30:24;;;;;;;2.17;1.80;;;;;;;7.66;100.00;99865.88;5075444;28;20194;-55
2022/12/01 06:32:51;;;;;;;3.63;2.73;;;;;;;7.62;100.00;99871.72;5074667;28;20230;-53
2022/12/01 06:35:21;;;;;;;2.33;2.10;;;;;;;7.60;100.00;99870.81;5075187;28;20206;-54
2022/12/01 06:37:48;;;;;;;1.90;1.80;;;;;;;7.35;100.00;99821.34;5074664;28;20201;-55
2022/12/01 06:40:15;;;;;;;4.90;3.37;;;;;;;7.72;100.00;99876.31;5074588;28;20214;-54
2022/12/01 06:42:41;;;;;;;3.83;3.00;;;;;;;7.65;100.00;99874.38;5074348;28;20251;-55
2022/12/01 06:45:10;;;;;;;4.57;3.30;;;;;;;7.62;100.00;99884.50;5074452;28;20649;-53
2022/12/01 06:47:37;;;;;;;2.10;1.90;;;;;;;7.61;100.00;99875.09;5074135;28;20616;-54
2022/12/01 06:50:08;;;;;;;3.63;2.50;;;;;;;7.55;100.00;99876.59;5074215;28;20202;-53
2022/12/01 06:52:37;;;;;;;3.87;2.93;;;;;;;7.50;100.00;99878.09;5074416;28;20239;-53
2022/12/01 06:55:04;;;;;;;6.90;3.73;;;;;;;7.56;100.00;99879.19;5058776;28;20206;-54
2022/12/01 06:57:31;;;;;;;38.07;20.77;;;;;;;7.60;100.00;99877.59;5054562;28;20197;-55
2022/12/01 06:59:58;;;;;;;22.53;13.73;;;;;;;7.66;100.00;99878.66;5054239;28;20186;-55
2022/12/01 07:02:25;;;;;;;10.03;5.77;;;;;;;7.66;100.00;99880.38;5053923;28;20205;-55
2022/12/01 07:04:51;;;;;;;7.13;4.90;;;;;;;7.60;100.00;99875.94;5054774;28;20192;-55
2022/12/01 07:07:18;;;;;;;6.93;4.43;;;;;;;7.58;100.00;99882.66;5054248;28;20219;-55
2022/12/01 07:09:46;;;;;;;5.13;4.27;;;;;;;7.62;100.00;99874.28;5053704;28;20196;-55
2022/12/01 07:12:13;;;;;;;13.77;8.87;;;;;;;7.52;100.00;99879.03;5053651;28;20197;-55
2022/12/01 07:14:41;;;;;;;16.90;9.43;;;;;;;7.50;100.00;99875.53;5054496;28;20218;-56
2022/12/01 07:17:08;;;;;;;20.87;12.73;;;;;;;7.55;100.00;99879.97;5053764;28;20233;-55
2022/12/01 07:19:35;;;;;;;17.80;12.90;;;;;;;7.55;100.00;99879.97;5034273;28;20452;-56
2022/12/01 07:22:01;;;;;;;9.70;7.53;;;;;;;7.60;100.00;99872.50;5033989;28;20196;-56
2022/12/01 07:24:29;;;;;;;10.30;8.23;;;;;;;7.73;100.00;99872.06;5033724;28;20196;-56
2022/12/01 07:26:57;;;;;;;10.90;7.17;;;;;;;7.39;100.00;99811.25;5032550;28;20673;-56
2022/12/01 07:29:24;;;;;;;9.80;7.00;;;;;;;7.79;100.00;99876.53;5034116;28;20189;-56
2022/12/01 07:31:51;;;;;;;12.20;8.03;;;;;;;7.83;100.00;99876.66;5033514;28;20201;-55
2022/12/01 07:34:18;;;;;;;11.85;9.70;;;;;;;7.89;100.00;99876.00;5032398;28;20441;-55
2022/12/01 07:36:44;;;;;;;7.33;6.27;;;;;;;7.84;100.00;99890.34;5033681;28;20196;-55
2022/12/01 07:39:11;;;;;;;6.93;5.63;;;;;;;7.69;100.00;99877.94;5033419;28;20192;-55
2022/12/01 07:41:38;;;;;;;6.07;5.20;;;;;;;7.74;100.00;99884.06;5033598;28;20255;-55
2022/12/01 07:44:07;;;;;;;8.20;6.30;;;;;;;7.82;100.00;99891.97;5070442;28;20256;-55
2022/12/01 07:46:33;;;;;;;9.60;6.73;;;;;;;7.72;100.00;99880.56;5053271;28;20560;-56
2022/12/01 07:49:00;;;;;;;8.50;5.77;;;;;;;7.77;100.00;99876.50;5062499;28;20348;-55
2022/12/01 07:51:27;;;;;;;12.50;7.77;;;;;;;7.85;100.00;99884.41;5073216;28;20235;-55
2022/12/01 07:53:55;;;;;;;6.93;5.50;;;;;;;7.84;100.00;99886.09;5072977;28;20597;-55
2022/12/01 07:56:22;;;;;;;5.57;5.07;;;;;;;7.77;100.00;99884.16;5073420;28;20190;-55
2022/12/01 07:58:49;;;;;;;4.57;2.80;;;;;;;7.67;100.00;99890.63;5071080;28;20204;-55
2022/12/01 08:01:19;;;;;;;5.10;4.70;;;;;;;7.61;100.00;99887.00;5052155;28;20202;-56
2022/12/01 08:03:48;;;;;;;3.87;3.47;;;;;;;7.34;100.00;99874.13;5073062;28;20199;-55
2022/12/01 08:06:15;;;;;;;4.30;2.87;;;;;;;7.52;100.00;99890.13;5072729;28;20199;-56
2022/12/01 08:08:42;;;;;;;6.00;4.83;;;;;;;7.62;100.00;99887.06;5072530;28;20194;-56
2022/12/01 08:11:11;;;;;;;4.40;3.83;;;;;;;7.67;100.00;99893.19;5073099;28;20570;-56
2022/12/01 08:13:39;;;;;;;3.87;3.43;;;;;;;7.69;100.00;99891.56;5065654;28;20214;-56
2022/12/01 08:16:07;;;;;;;5.30;3.90;;;;;;;7.56;100.00;99865.53;5039981;28;20440;-55
2022/12/01 08:18:36;;;;;;;4.10;3.50;;;;;;;7.68;100.00;99866.81;5032988;28;20204;-55
2022/12/01 08:21:03;;;;;;;7.37;6.03;;;;;;;7.85;100.00;99892.09;5032511;28;20685;-55
2022/12/01 08:23:30;;;;;;;4.77;4.00;;;;;;;7.90;100.00;99893.97;5032667;28;20276;-55
2022/12/01 08:26:00;;;;;;;6.57;3.17;;;;;;;7.92;100.00;99896.56;5032694;28;20254;-56
2022/12/01 08:28:27;;;;;;;6.10;4.50;;;;;;;7.87;100.00;99891.31;5032473;28;20607;-56
2022/12/01 08:30:54;;;;;;;5.23;4.17;;;;;;;7.87;100.00;99886.19;5069075;28;20202;-56
2022/12/01 08:33:21;;;;;;;5.03;4.17;;;;;;;7.78;100.00;99885.00;5071903;28;20697;-56
2022/12/01 08:35:49;;;;;;;9.13;7.30;;;;;;;7.75;100.00;99880.66;5072146;28;20620;-56
2022/12/01 08:38:16;;;;;;;4.57;4.10;;;;;;;7.77;100.00;99878.16;5071746;28;20197;-56
2022/12/01 08:40:43;;;;;;;5.70;3.13;;;;;;;7.71;100.00;99872.03;5045529;28;20203;-56
2022/12/01 08:43:09;;;;;;;4.33;3.93;;;;;;;7.76;100.00;99876.41;5032235;28;20595;-56
2022/12/01 08:45:36;;;;;;;6.30;5.17;;;;;;;7.76;100.00;99871.31;5031904;28;20288;-56
2022/12/01 08:48:03;;;;;;;5.60;5.10;;;;;;;7.76;100.00;99863.63;5041335;28;20199;-57
2022/12/01 08:50:30;;;;;;;7.43;5.70;;;;;;;7.72;100.00;99871.19;5048844;28;20198;-57
2022/12/01 08:52:58;;;;;;;9.20;6.43;;;;;;;7.82;100.00;99868.97;5046765;28;20316;-57
2022/12/01 08:55:25;;;;;;;11.57;8.17;;;;;;;7.92;100.00;99869.31;5047476;28;20188;-57
2022/12/01 08:57:52;;;;;;;5.40;4.33;;;;;;;7.88;100.00;99861.50;5054133;28;20244;-56
2022/12/01 09:00:19;;;;;;;6.77;6.17;;;;;;;7.85;100.00;99859.72;5057123;28;20194;-57
2022/12/01 09:02:46;;;;;;;5.87;5.37;;;;;;;7.92;100.00;99859.06;5062673;28;20569;-57
2022/12/01 09:05:13;;;;;;;6.13;5.03;;;;;;;7.97;100.00;99854.09;5071884;28;20616;-57
2022/12/01 09:07:41;;;;;;;5.17;4.70;;;;;;;7.84;100.00;99855.41;5071472;28;20738;-56
2022/12/01 09:10:10;;;;;;;5.23;4.77;;;;;;;7.99;100.00;99860.16;5072104;28;20672;-56
2022/12/01 09:12:37;;;;;;;7.57;6.05;;;;;;;8.00;100.00;99847.38;5070816;28;20911;-56
2022/12/01 09:15:04;;;;;;;4.93;3.90;;;;;;;8.06;100.00;99857.81;5046758;28;20222;-56
2022/12/01 09:17:32;;;;;;;10.97;7.97;;;;;;;8.16;100.00;99848.72;5049522;28;20194;-56
2022/12/01 09:19:58;;;;;;;9.77;7.57;;;;;;;8.18;100.00;99847.13;5052314;28;20272;-56
2022/12/01 09:22:25;;;;;;;9.70;6.30;;;;;;;8.24;100.00;99839.63;5049621;28;20187;-57
2022/12/01 09:24:52;;;;;;;4.67;4.17;;;;;;;8.20;99.62;99841.22;5046439;28;20700;-57
2022/12/01 09:27:20;;;;;;;6.73;5.17;;;;;;;8.26;99.79;99845.66;5048501;28;20652;-56
2022/12/01 09:29:47;;;;;;;10.93;8.23;;;;;;;8.30;99.47;99843.25;5048744;28;20209;-56
2022/12/01 09:32:14;;;;;;;7.33;6.13;;;;;;;8.28;99.95;99839.78;5048942;28;20184;-57
2022/12/01 09:34:41;;;;;;;6.80;5.30;;;;;;;8.27;99.58;99829.50;5050515;28;20207;-58
2022/12/01 09:37:08;;;;;;;5.73;4.20;;;;;;;8.43;99.94;99830.84;5052519;28;20285;-57
2022/12/01 09:39:34;;;;;;;5.90;4.73;;;;;;;8.52;99.86;99833.66;5069930;28;20636;-56
2022/12/01 09:42:05;;;;;;;5.33;4.83;;;;;;;8.53;98.97;99831.16;5066718;28;20202;-56
2022/12/01 09:44:39;;;;;;;5.20;4.70;;;;;;;8.41;98.19;99822.22;5067145;28;20206;-56
2022/12/01 09:47:17;;;;;;;4.83;4.00;;;;;;;8.52;98.41;99825.97;5070861;28;20218;-55
2022/12/01 09:49:55;;;;;;;6.20;5.17;;;;;;;8.57;97.89;99819.31;5072614;28;20221;-55
2022/12/01 09:52:24;;;;;;;8.43;5.40;;;;;;;8.58;98.77;99819.34;5075068;28;20299;-56
2022/12/01 09:54:53;;;;;;;7.47;4.60;;;;;;;8.61;98.56;99829.69;5075378;28;20269;-56
2022/12/01 09:57:30;;;;;;;5.40;4.97;;;;;;;8.63;98.26;99820.34;5075581;28;20278;-56
2022/12/01 10:00:01;;;;;;;8.33;4.80;;;;;;;8.61;98.15;99821.13;5074953;28;20539;-56
2022/12/01 10:02:34;;;;;;;3.93;3.60;;;;;;;8.60;98.05;99824.50;5075904;28;20192;-56
2022/12/01 10:05:06;;;;;;;5.70;4.77;;;;;;;8.55;98.02;99815.81;5071719;28;20198;-56
2022/12/01 10:07:37;;;;;;;9.63;8.73;;;;;;;8.59;98.61;99822.78;5044964;28;20450;-56
2022/12/01 10:10:08;;;;;;;6.47;5.07;;;;;;;8.62;98.90;99818.63;5035092;28;20196;-56
2022/12/01 10:12:35;;;;;;;6.27;5.50;;;;;;;8.66;98.90;99817.00;5034849;28;20641;-56
2022/12/01 10:15:29;;;;;;;6.83;5.63;;;;;;;8.67;98.88;99814.50;5054276;28;20243;-56
2022/12/01 10:18:06;;;;;;;6.30;5.47;;;;;;;8.65;98.85;99821.25;5051703;28;20203;-56
2022/12/01 10:20:41;;;;;;;7.10;5.57;;;;;;;8.68;98.87;99811.09;5054286;28;20223;-58
2022/12/01 10:23:25;;;;;;;8.15;6.78;;;;;;;8.69;100.00;99806.84;5049536;28;20436;-57
2022/12/01 10:25:56;;;;;;;7.87;6.30;;;;;;;8.74;99.31;99807.84;5054562;28;20279;-57
2022/12/01 10:28:53;;;;;;;6.30;5.70;;;;;;;8.79;99.19;99807.16;5054689;28;20184;-57
2022/12/01 10:31:28;;;;;;;5.53;5.00;;;;;;;8.75;98.73;99807.03;5054387;28;20218;-55
2022/12/01 10:34:00;;;;;;;5.87;4.97;;;;;;;8.79;98.39;99811.41;5036719;28;20227;-55
2022/12/01 10:36:30;;;;;;;7.63;6.93;;;;;;;8.72;98.18;99805.25;5036153;28;20188;-55
2022/12/01 10:38:57;;;;;;;6.23;5.20;;;;;;;8.67;97.93;99814.50;5054106;28;20279;-56
2022/12/01 10:41:28;;;;;;;9.07;6.00;;;;;;;8.58;98.70;99809.13;5054284;28;20191;-56
2022/12/01 10:43:59;;;;;;;6.60;4.80;;;;;;;8.50;99.40;99802.91;5053302;28;20200;-57
2022/12/01 10:46:40;;;;;;;12.60;7.50;;;;;;;8.46;99.97;99798.50;5051861;28;20751;-56
2022/12/01 10:49:10;;;;;;;7.63;5.63;;;;;;;8.44;100.00;99795.03;5049476;28;20195;-57
2022/12/01 10:51:50;;;;;;;6.80;6.13;;;;;;;8.48;100.00;99793.44;5053475;28;20318;-56
2022/12/01 10:54:17;;;;;;;10.23;8.07;;;;;;;8.57;100.00;99791.16;5052206;28;20562;-56
2022/12/01 10:56:46;;;;;;;8.97;7.40;;;;;;;8.37;100.00;99784.56;5053409;28;20199;-56
2022/12/01 10:59:24;;;;;;;8.03;6.90;;;;;;;8.45;100.00;99794.22;5053388;28;20201;-56
2022/12/01 11:01:54;;;;;;;17.45;12.82;;;;;;;8.48;100.00;99796.88;5050975;28;20439;-56
2022/12/01 11:04:33;;;;;;;10.80;8.30;;;;;;;8.55;100.00;99792.78;5051897;28;20216;-56
2022/12/01 11:07:00;;;;;;;15.20;9.63;;;;;;;8.60;100.00;99786.09;5052331;28;20237;-58
2022/12/01 11:09:29;;;;;;;8.20;7.30;;;;;;;8.61;100.00;99786.16;5053416;28;20198;-57
2022/12/01 11:11:58;;;;;;;8.53;7.63;;;;;;;8.60;100.00;99786.09;5053212;28;20202;-57
2022/12/01 11:14:44;;;;;;;20.97;12.63;;;;;;;8.51;100.00;99781.59;5052750;28;20215;-57
2022/12/01 11:17:30;;;;;;;13.43;10.63;;;;;;;8.53;100.00;99787.63;5048048;28;20455;-57
2022/12/01 11:19:57;;;;;;;11.13;8.23;;;;;;;8.58;100.00;99786.06;5051840;28;20650;-57
2022/12/01 11:22:26;;;;;;;6.87;5.57;;;;;;;7.97;100.00;99670.75;5053230;28;20189;-57
2022/12/01 11:25:00;;;;;;;12.23;8.60;;;;;;;8.56;99.77;99780.03;5060817;28;20195;-56
2022/12/01 11:27:30;;;;;;;9.10;7.47;;;;;;;8.62;100.00;99775.09;5074223;28;20267;-56
2022/12/01 11:30:01;;;;;;;9.80;7.50;;;;;;;8.65;100.00;99776.88;5061027;28;20191;-56
2022/12/01 11:32:32;;;;;;;10.73;8.87;;;;;;;8.69;100.00;99771.88;5041783;28;20192;-56
2022/12/01 11:35:01;;;;;;;9.27;7.90;;;;;;;8.69;100.00;99776.13;5033381;28;20224;-56
2022/12/01 11:37:35;;;;;;;18.17;12.90;;;;;;;8.65;100.00;99772.59;5033442;28;20196;-56
2022/12/01 11:40:09;;;;;;;10.23;7.40;;;;;;;8.66;100.00;99781.16;5033574;28;20192;-56
2022/12/01 11:42:36;;;;;;;29.57;17.23;;;;;;;8.63;99.32;99765.69;5040502;28;20219;-56
2022/12/01 11:45:08;;;;;;;9.90;7.27;;;;;;;8.54;100.00;99775.69;5052458;28;20246;-56
2022/12/01 11:48:01;;;;;;;20.63;12.37;;;;;;;8.54;99.57;99780.81;5050993;28;20282;-56
2022/12/01 11:50:29;;;;;;;14.70;8.17;;;;;;;8.47;98.86;99773.78;5046619;28;20195;-56
2022/12/01 11:52:57;;;;;;;19.20;11.80;;;;;;;8.42;98.26;99776.22;5048627;28;20219;-56